Time;durP1;ratioP1;P1;durP2;ratioP2;P2;SDS_P1;SDS_P2;PMS_P1;PMS_P2;Temp;Humidity;BMP_temperature;BMP_pressure;BME280_temperature;BME280_humidity;BME280_pressure;Samples;Min_cycle;Max_cycle;Signal;HPM_P1;HPM_P2
2022/01/29 00:00:48;;;;;;;19.70;13.27;;;;;;;2.39;66.37;100925.41;5031193;28;20228;-69
2022/01/29 00:03:15;;;;;;;18.67;11.80;;;;;;;2.19;66.07;100887.97;5034738;28;20690;-69
2022/01/29 00:05:42;;;;;;;19.47;12.50;;;;;;;2.19;66.71;100905.53;5040498;28;20218;-69
2022/01/29 00:08:09;;;;;;;18.47;11.77;;;;;;;1.68;67.66;100890.00;5044970;28;20226;-69
2022/01/29 00:10:36;;;;;;;18.93;12.37;;;;;;;2.19;67.09;100930.09;5038167;28;20231;-69
2022/01/29 00:13:05;;;;;;;20.17;13.10;;;;;;;2.25;66.84;100911.28;5048929;28;20234;-69
2022/01/29 00:15:32;;;;;;;19.47;12.63;;;;;;;2.56;65.76;100903.34;5049222;28;20238;-69
2022/01/29 00:17:59;;;;;;;19.97;12.93;;;;;;;1.93;66.95;100892.09;5050096;28;20735;-69
2022/01/29 00:20:26;;;;;;;23.30;13.90;;;;;;;2.35;66.32;100905.50;5049350;28;20223;-70
2022/01/29 00:22:53;;;;;;;19.50;13.07;;;;;;;1.96;67.00;100926.13;5049252;28;20905;-69
2022/01/29 00:25:20;;;;;;;19.57;12.37;;;;;;;2.00;67.10;100935.53;5049782;28;20243;-70
2022/01/29 00:27:47;;;;;;;22.57;13.87;;;;;;;1.98;67.09;100944.47;5043557;28;20236;-69
2022/01/29 00:30:17;;;;;;;18.70;12.30;;;;;;;2.03;67.10;100937.16;5041152;28;20230;-70
2022/01/29 00:32:44;;;;;;;22.90;13.80;;;;;;;1.85;68.19;100941.66;5016780;22;20245;-66
2022/01/29 00:35:12;;;;;;;21.13;13.70;;;;;;;1.92;67.66;100943.88;4987852;28;20240;-66
2022/01/29 00:37:39;;;;;;;22.13;13.57;;;;;;;1.85;68.02;100947.75;4989412;28;20228;-68
2022/01/29 00:40:07;;;;;;;21.17;14.50;;;;;;;2.16;66.83;100919.72;4988928;28;20227;-68
2022/01/29 00:42:34;;;;;;;22.13;14.30;;;;;;;2.20;67.03;100912.50;4988701;28;20245;-68
2022/01/29 00:45:01;;;;;;;23.03;13.90;;;;;;;2.07;67.46;100922.88;4971327;28;20232;-68
2022/01/29 00:47:27;;;;;;;21.43;13.33;;;;;;;2.99;64.61;100904.22;4989614;28;20229;-68
2022/01/29 00:49:54;;;;;;;20.17;12.60;;;;;;;2.78;65.14;100893.22;4989616;28;20232;-68
2022/01/29 00:52:21;;;;;;;19.87;12.17;;;;;;;2.47;66.18;100891.59;4988005;28;20836;-67
2022/01/29 00:54:48;;;;;;;17.00;11.23;;;;;;;2.93;64.92;100895.84;4988653;28;20783;-68
2022/01/29 00:57:15;;;;;;;17.63;11.93;;;;;;;1.94;65.96;100865.69;4988803;28;20230;-68
2022/01/29 00:59:42;;;;;;;19.50;12.50;;;;;;;0.76;72.21;100961.50;4989028;28;20232;-68
2022/01/29 01:02:09;;;;;;;19.63;11.13;;;;;;;-0.84;76.12;100919.34;4988724;28;20232;-68
2022/01/29 01:04:39;;;;;;;21.27;11.63;;;;;;;0.74;72.50;100976.47;4987980;28;20608;-68
2022/01/29 01:07:07;;;;;;;19.17;11.50;;;;;;;2.49;66.90;100916.91;4989008;28;20227;-68
2022/01/29 01:09:35;;;;;;;18.63;11.17;;;;;;;2.77;65.79;100906.50;4988362;28;20228;-67
2022/01/29 01:12:02;;;;;;;22.97;11.77;;;;;;;2.90;65.05;100886.38;4971713;28;20594;-67
2022/01/29 01:14:35;;;;;;;17.13;10.67;;;;;;;2.73;65.42;100868.09;4987336;28;20241;-67
2022/01/29 01:17:03;;;;;;;16.83;10.63;;;;;;;1.80;67.77;100899.81;4988865;28;20256;-67
2022/01/29 01:19:30;;;;;;;16.93;10.93;;;;;;;2.14;67.83;100918.97;4988302;28;20228;-68
2022/01/29 01:21:57;;;;;;;16.80;10.47;;;;;;;-0.32;75.36;100949.22;4988923;28;20245;-67
2022/01/29 01:24:24;;;;;;;16.97;10.73;;;;;;;1.20;71.88;100945.16;4987886;28;20225;-67
2022/01/29 01:26:52;;;;;;;19.07;11.60;;;;;;;1.19;70.19;100910.13;4987421;28;21620;-67
2022/01/29 01:29:19;;;;;;;16.07;9.93;;;;;;;-0.13;73.92;100909.03;4988668;28;20257;-67
2022/01/29 01:31:46;;;;;;;15.93;10.70;;;;;;;1.00;71.63;100920.78;4987853;28;20228;-67
2022/01/29 01:34:15;;;;;;;19.70;11.77;;;;;;;-0.08;75.24;100929.78;4988216;28;20228;-67
2022/01/29 01:36:53;;;;;;;16.33;10.57;;;;;;;0.70;72.19;100902.22;4969476;28;20582;-68
2022/01/29 01:39:25;;;;;;;19.10;11.97;;;;;;;2.40;68.34;100880.56;4988399;28;20234;-67
2022/01/29 01:42:02;;;;;;;14.97;10.47;;;;;;;0.47;70.82;100869.31;4988466;28;20232;-67
2022/01/29 01:44:46;;;;;;;16.37;10.23;;;;;;;0.60;71.81;100898.38;4986613;28;20807;-66
2022/01/29 01:47:14;;;;;;;17.73;11.17;;;;;;;1.47;69.02;100856.09;4988310;28;20236;-67
2022/01/29 01:49:41;;;;;;;18.63;10.93;;;;;;;-0.54;75.39;100889.09;4987767;28;20227;-67
2022/01/29 01:52:12;;;;;;;18.20;11.30;;;;;;;0.83;72.36;100902.44;4988307;28;20712;-67
2022/01/29 01:54:39;;;;;;;17.77;11.57;;;;;;;0.67;72.86;100906.78;4985827;28;20366;-67
2022/01/29 01:57:07;;;;;;;17.07;11.13;;;;;;;1.85;70.53;100881.16;4988089;28;20232;-68
2022/01/29 01:59:34;;;;;;;13.87;8.03;;;;;;;-1.04;77.13;100866.09;4988114;28;20738;-68
2022/01/29 02:02:02;;;;;;;17.43;10.77;;;;;;;-0.20;75.51;100891.91;4987193;28;20239;-68
2022/01/29 02:04:30;;;;;;;18.43;11.73;;;;;;;-0.61;77.32;100897.31;4986096;28;20223;-67
2022/01/29 02:06:58;;;;;;;15.20;10.93;;;;;;;-0.82;79.12;100918.34;4987624;28;20625;-67
2022/01/29 02:09:25;;;;;;;20.60;11.97;;;;;;;-0.07;75.21;100890.38;4979661;28;20232;-67
2022/01/29 02:11:56;;;;;;;19.73;12.50;;;;;;;0.12;75.90;100892.94;4987377;28;20236;-67
2022/01/29 02:14:27;;;;;;;19.90;12.40;;;;;;;-0.08;76.56;100899.16;4986972;28;21021;-67
2022/01/29 02:16:54;;;;;;;19.07;11.43;;;;;;;-0.55;78.58;100916.22;4987100;28;20266;-67
2022/01/29 02:19:22;;;;;;;18.73;11.73;;;;;;;-0.05;74.31;100856.16;4987426;28;20238;-67
2022/01/29 02:21:49;;;;;;;16.73;11.37;;;;;;;0.74;74.72;100881.91;4987327;28;20232;-67
2022/01/29 02:24:16;;;;;;;20.90;12.97;;;;;;;-0.15;75.61;100876.78;4986072;28;20231;-67
2022/01/29 02:26:43;;;;;;;23.20;13.67;;;;;;;0.83;73.35;100858.63;4987290;28;20633;-67
2022/01/29 02:29:10;;;;;;;19.07;13.00;;;;;;;0.41;74.30;100861.75;4986993;28;20232;-68
2022/01/29 02:31:54;;;;;;;26.13;14.23;;;;;;;0.16;74.17;100864.75;4987368;28;20224;-67
2022/01/29 02:34:21;;;;;;;21.27;14.03;;;;;;;-0.14;77.91;100902.06;4985460;28;20223;-67
2022/01/29 02:36:50;;;;;;;30.27;13.57;;;;;;;-0.79;77.18;100855.34;4986831;28;20228;-67
2022/01/29 02:39:18;;;;;;;19.70;13.07;;;;;;;0.73;75.04;100869.72;4987229;28;20232;-67
2022/01/29 02:41:46;;;;;;;21.70;14.40;;;;;;;-0.20;75.42;100860.41;4986717;28;20236;-67
2022/01/29 02:44:17;;;;;;;20.80;13.13;;;;;;;0.83;73.52;100848.13;4986867;28;20633;-67
2022/01/29 02:49:25;;;;;;;19.60;13.00;;;;;;;-0.70;76.29;100839.16;4987322;28;20237;-66
2022/01/29 02:51:57;;;;;;;24.17;15.43;;;;;;;0.53;71.48;100779.69;4968772;28;20891;-67
2022/01/29 02:54:26;;;;;;;23.27;15.10;;;;;;;1.70;69.85;100783.78;4986776;28;20224;-67
2022/01/29 02:56:53;;;;;;;24.53;15.20;;;;;;;1.06;71.70;100806.63;4986676;28;21773;-67
2022/01/29 02:59:20;;;;;;;22.47;14.90;;;;;;;0.48;72.68;100818.47;4986416;28;20227;-67
2022/01/29 03:01:47;;;;;;;22.27;14.70;;;;;;;1.16;70.79;100788.56;4987260;28;20223;-67
2022/01/29 03:04:14;;;;;;;24.23;16.30;;;;;;;0.20;71.01;100761.31;4985687;28;20623;-66
2022/01/29 03:06:41;;;;;;;26.23;15.73;;;;;;;-0.15;73.39;100809.44;4985172;28;20604;-67
2022/01/29 03:09:08;;;;;;;21.80;13.90;;;;;;;0.72;73.16;100855.72;4986289;28;20227;-67
2022/01/29 03:11:35;;;;;;;24.93;15.30;;;;;;;0.96;72.04;100829.94;4986568;28;20223;-67
2022/01/29 03:14:02;;;;;;;21.60;14.73;;;;;;;0.62;72.54;100830.88;4985938;28;20241;-66
2022/01/29 03:16:29;;;;;;;22.87;15.93;;;;;;;0.61;73.34;100842.31;4985118;28;20246;-66
2022/01/29 03:18:56;;;;;;;22.77;14.57;;;;;;;0.79;72.43;100827.34;4987039;28;20223;-67
2022/01/29 03:21:23;;;;;;;25.97;15.13;;;;;;;1.48;70.00;100809.59;4968974;28;20227;-67
2022/01/29 03:23:50;;;;;;;21.73;14.30;;;;;;;0.47;73.25;100860.56;4986358;28;20238;-67
2022/01/29 03:26:17;;;;;;;21.30;16.07;;;;;;;-0.50;74.18;100819.88;4986045;28;20230;-67
2022/01/29 03:28:44;;;;;;;21.87;15.50;;;;;;;1.08;71.51;100822.28;4985604;28;20235;-67
2022/01/29 03:31:11;;;;;;;24.00;15.20;;;;;;;1.43;69.54;100795.84;4986653;28;20625;-67
2022/01/29 03:33:38;;;;;;;23.03;15.80;;;;;;;-0.36;74.40;100821.81;4986008;28;20782;-67
2022/01/29 03:36:05;;;;;;;25.37;15.87;;;;;;;1.17;70.79;100801.59;4986832;28;20711;-67
2022/01/29 03:38:33;;;;;;;20.10;12.97;;;;;;;-0.70;76.03;100819.97;4986046;28;20237;-67
2022/01/29 03:41:00;;;;;;;25.20;15.40;;;;;;;1.65;69.60;100774.44;4985831;28;20231;-67
2022/01/29 03:43:34;;;;;;;22.73;15.00;;;;;;;0.35;72.46;100801.66;4986639;28;20224;-67
2022/01/29 03:46:01;;;;;;;27.00;16.13;;;;;;;1.44;69.93;100779.16;4988468;28;20654;-67
2022/01/29 03:48:28;;;;;;;25.33;15.80;;;;;;;0.55;71.32;100780.47;4989221;28;20233;-66
2022/01/29 03:50:55;;;;;;;23.20;14.87;;;;;;;1.09;70.12;100767.03;4988813;28;20236;-67
2022/01/29 03:53:22;;;;;;;23.40;15.17;;;;;;;1.64;68.86;100756.97;4989455;28;20227;-67
2022/01/29 03:55:49;;;;;;;21.77;15.40;;;;;;;1.90;67.83;100737.88;4990050;28;20228;-66
2022/01/29 03:58:16;;;;;;;26.33;14.33;;;;;;;1.94;67.56;100731.47;4989049;28;20226;-66
2022/01/29 04:00:43;;;;;;;23.43;14.37;;;;;;;2.07;67.47;100739.50;4989822;28;20612;-67
2022/01/29 04:03:10;;;;;;;21.87;14.80;;;;;;;1.89;68.15;100749.31;4988906;28;20601;-67
2022/01/29 04:05:37;;;;;;;20.53;12.93;;;;;;;1.80;67.60;100734.06;4989610;28;20224;-67
2022/01/29 04:08:09;;;;;;;22.87;14.27;;;;;;;1.49;68.87;100769.22;4989374;28;20262;-67
2022/01/29 04:10:36;;;;;;;26.27;15.30;;;;;;;1.27;70.65;100799.31;4988838;28;20236;-66
2022/01/29 04:13:03;;;;;;;24.33;14.17;;;;;;;0.85;70.39;100773.66;4989566;28;20234;-66
2022/01/29 04:15:30;;;;;;;22.13;13.93;;;;;;;1.87;68.52;100767.00;4989447;28;20244;-67
2022/01/29 04:17:57;;;;;;;23.13;14.10;;;;;;;1.66;68.62;100747.22;4989387;28;20226;-67
2022/01/29 04:20:24;;;;;;;22.03;12.83;;;;;;;1.79;67.94;100729.75;4988519;28;20230;-67
2022/01/29 04:22:51;;;;;;;19.93;11.90;;;;;;;1.51;68.91;100726.13;4988430;28;20824;-67
2022/01/29 04:25:18;;;;;;;20.47;12.57;;;;;;;1.72;68.83;100737.19;4989575;28;20225;-67
2022/01/29 04:27:47;;;;;;;21.80;13.00;;;;;;;1.47;69.14;100740.38;4971781;28;20598;-67
2022/01/29 04:30:28;;;;;;;17.37;11.57;;;;;;;1.51;68.92;100735.78;4989761;28;20835;-67
2022/01/29 04:33:14;;;;;;;18.23;10.50;;;;;;;1.70;67.09;100710.13;4987304;28;22042;-67
2022/01/29 04:35:41;;;;;;;15.03;10.17;;;;;;;1.81;68.17;100748.09;4984576;28;20225;-67
2022/01/29 04:38:08;;;;;;;15.00;8.50;;;;;;;1.12;69.61;100750.25;4991104;28;20219;-67
2022/01/29 04:40:35;;;;;;;16.43;9.33;;;;;;;1.97;67.61;100748.84;4988396;28;20238;-66
2022/01/29 04:43:03;;;;;;;19.13;9.03;;;;;;;0.72;70.75;100762.97;4989019;28;20231;-67
2022/01/29 04:45:31;;;;;;;14.77;9.80;;;;;;;1.55;69.41;100782.88;4988546;28;20612;-67
2022/01/29 04:47:58;;;;;;;13.07;8.13;;;;;;;1.19;69.63;100762.94;4989532;28;20237;-67
2022/01/29 04:50:26;;;;;;;12.37;7.30;;;;;;;0.89;70.54;100783.91;4983335;28;20607;-67
2022/01/29 04:52:53;;;;;;;14.17;8.40;;;;;;;1.38;68.57;100775.91;4988217;28;20558;-67
2022/01/29 04:55:20;;;;;;;15.33;8.77;;;;;;;1.78;67.81;100758.78;4988514;28;20233;-67
2022/01/29 04:57:47;;;;;;;13.40;8.43;;;;;;;1.41;68.87;100769.63;4989257;28;20232;-67
2022/01/29 05:00:20;;;;;;;12.23;7.73;;;;;;;1.28;69.88;100784.38;4988917;28;20223;-67
2022/01/29 05:02:48;;;;;;;17.00;8.70;;;;;;;1.33;69.29;100774.47;4964705;28;20705;-67
2022/01/29 05:05:16;;;;;;;14.93;9.87;;;;;;;1.54;68.81;100786.44;4988611;28;20857;-67
2022/01/29 05:07:43;;;;;;;15.40;9.03;;;;;;;1.61;68.72;100771.13;4988493;28;20233;-67
2022/01/29 05:10:10;;;;;;;15.93;9.57;;;;;;;1.72;68.28;100760.00;4989004;28;20232;-67
2022/01/29 05:12:53;;;;;;;15.90;10.10;;;;;;;1.22;69.88;100759.31;4987480;28;20249;-67
2022/01/29 05:28:51;;;;;;;16.20;9.10;;;;;;;0.11;73.53;100772.31;4987384;28;20276;-67
2022/01/29 05:31:18;;;;;;;16.80;9.80;;;;;;;0.43;75.20;100841.50;4987494;28;20232;-67
2022/01/29 05:33:45;;;;;;;17.40;10.17;;;;;;;1.03;72.90;100809.44;4988127;28;20232;-67
2022/01/29 05:36:12;;;;;;;16.53;9.07;;;;;;;0.41;74.25;100827.59;4987474;28;20231;-67
2022/01/29 05:38:39;;;;;;;13.90;9.00;;;;;;;-0.44;76.41;100817.88;4987325;28;20231;-66
2022/01/29 05:41:06;;;;;;;16.07;9.47;;;;;;;-0.43;78.22;100848.41;4988334;28;20246;-67
2022/01/29 05:43:33;;;;;;;13.83;8.43;;;;;;;-1.17;79.93;100823.84;4987526;28;20227;-67
2022/01/29 05:46:00;;;;;;;12.60;8.63;;;;;;;-0.85;77.85;100803.22;4987880;28;20857;-67
2022/01/29 05:48:28;;;;;;;12.60;8.20;;;;;;;-0.96;80.89;100831.69;4986808;28;20231;-67
2022/01/29 05:50:55;;;;;;;11.87;8.77;;;;;;;-1.66;80.84;100781.56;4988626;28;20222;-67
2022/01/29 05:53:22;;;;;;;14.97;9.47;;;;;;;-1.72;81.03;100773.97;4987610;28;20223;-67
2022/01/29 05:55:49;;;;;;;15.43;9.13;;;;;;;-1.23;81.51;100808.44;4987791;28;20233;-67
2022/01/29 05:58:16;;;;;;;10.43;7.87;;;;;;;-1.54;80.93;100777.53;4987750;28;20226;-67
2022/01/29 06:00:43;;;;;;;12.30;8.70;;;;;;;-1.87;80.98;100752.81;4986552;28;20613;-67
2022/01/29 06:03:10;;;;;;;16.53;9.23;;;;;;;-0.94;78.52;100772.22;4987591;28;20226;-67
2022/01/29 06:05:37;;;;;;;17.57;10.80;;;;;;;-0.72;76.44;100767.66;4987448;28;20224;-67
2022/01/29 06:08:05;;;;;;;14.07;9.77;;;;;;;-0.82;75.44;100721.84;4987211;28;20223;-67
2022/01/29 06:10:33;;;;;;;16.53;10.13;;;;;;;-0.79;76.80;100762.78;4986983;28;20232;-66
2022/01/29 06:13:05;;;;;;;16.03;10.40;;;;;;;-1.04;77.52;100769.19;4986963;28;20234;-67
2022/01/29 06:15:37;;;;;;;13.20;8.73;;;;;;;0.79;72.85;100738.91;4987953;28;20310;-67
2022/01/29 06:18:04;;;;;;;18.37;11.20;;;;;;;0.30;74.18;100772.19;4986983;28;20626;-67
2022/01/29 06:20:31;;;;;;;18.37;11.43;;;;;;;-0.17;73.57;100768.47;4987094;28;20231;-66
2022/01/29 06:22:58;;;;;;;18.13;10.90;;;;;;;0.61;71.42;100740.75;4986935;28;20736;-67
2022/01/29 06:25:25;;;;;;;17.77;12.13;;;;;;;0.63;72.34;100753.81;4970350;28;20218;-67
2022/01/29 06:27:52;;;;;;;15.53;10.30;;;;;;;-0.60;73.89;100752.25;4987387;28;20242;-67
2022/01/29 06:30:24;;;;;;;18.80;11.40;;;;;;;-0.66;77.08;100792.69;4954100;28;20236;-66
2022/01/29 06:32:51;;;;;;;17.47;11.70;;;;;;;0.43;73.81;100755.72;5011024;23;20793;-67
2022/01/29 06:35:18;;;;;;;18.40;12.80;;;;;;;-0.13;74.45;100762.16;5006221;28;20233;-64
2022/01/29 06:37:45;;;;;;;16.77;10.20;;;;;;;-1.40;76.82;100735.91;5007726;28;20610;-65
2022/01/29 06:40:13;;;;;;;19.27;12.63;;;;;;;-0.27;75.44;100761.97;5005954;28;20219;-64
2022/01/29 06:42:40;;;;;;;17.57;12.33;;;;;;;-0.79;75.65;100750.53;5023381;28;21666;-63
2022/01/29 06:45:08;;;;;;;20.40;12.80;;;;;;;-0.12;75.13;100750.72;5026705;28;20221;-65
2022/01/29 06:47:35;;;;;;;20.30;12.30;;;;;;;-0.83;77.95;100775.16;5008875;28;20226;-64
2022/01/29 06:50:02;;;;;;;24.73;15.57;;;;;;;-0.03;74.98;100736.31;5026863;28;20227;-65
2022/01/29 06:52:29;;;;;;;20.57;14.27;;;;;;;0.23;74.16;100735.78;5025345;28;20226;-65
2022/01/29 06:54:56;;;;;;;15.83;11.27;;;;;;;0.26;73.31;100724.28;5027109;28;20225;-65
2022/01/29 06:57:23;;;;;;;21.13;13.77;;;;;;;1.33;70.01;100706.13;5018526;28;20232;-64
2022/01/29 06:59:50;;;;;;;17.13;10.33;;;;;;;0.22;72.89;100739.34;5027343;28;20721;-65
2022/01/29 07:02:17;;;;;;;18.93;12.60;;;;;;;1.10;69.84;100703.03;5026715;28;20226;-64
2022/01/29 07:04:44;;;;;;;24.40;14.10;;;;;;;0.73;70.55;100707.72;5019644;28;20258;-65
2022/01/29 07:07:11;;;;;;;19.23;12.67;;;;;;;0.86;71.06;100728.91;5024713;28;20234;-65
2022/01/29 07:09:38;;;;;;;23.10;15.33;;;;;;;1.25;69.45;100689.97;5026417;28;20230;-64
2022/01/29 07:12:10;;;;;;;21.43;14.43;;;;;;;1.51;69.09;100704.25;5026650;28;20227;-64
2022/01/29 07:14:40;;;;;;;23.23;13.17;;;;;;;1.50;68.19;100682.38;5025468;28;20318;-65
2022/01/29 07:17:13;;;;;;;22.07;15.00;;;;;;;1.54;67.86;100683.88;5026679;28;20234;-65
2022/01/29 07:19:40;;;;;;;20.27;14.60;;;;;;;0.83;68.94;100693.13;5028862;28;20218;-64
2022/01/29 07:22:07;;;;;;;20.00;14.33;;;;;;;1.53;67.68;100702.34;5030280;28;20694;-65
2022/01/29 07:24:35;;;;;;;19.70;13.17;;;;;;;1.16;68.08;100692.19;5029435;28;20713;-65
2022/01/29 07:27:04;;;;;;;22.50;14.60;;;;;;;1.81;67.06;100701.56;5030202;28;20227;-65
2022/01/29 07:29:31;;;;;;;18.93;13.97;;;;;;;1.43;67.63;100694.16;5030768;28;20215;-65
2022/01/29 07:31:59;;;;;;;15.80;11.40;;;;;;;1.51;67.55;100688.47;5012780;28;20229;-65
2022/01/29 07:34:27;;;;;;;19.87;13.20;;;;;;;0.70;70.41;100743.81;5003491;28;20226;-64
2022/01/29 07:36:55;;;;;;;19.40;12.70;;;;;;;1.24;68.74;100710.13;5029509;28;20231;-64
2022/01/29 07:39:23;;;;;;;19.13;13.20;;;;;;;-0.14;72.83;100737.69;5029932;28;20228;-65
2022/01/29 07:41:50;;;;;;;20.53;13.27;;;;;;;1.50;67.95;100702.53;5030242;28;20230;-64
2022/01/29 07:44:18;;;;;;;19.97;14.43;;;;;;;1.27;69.05;100711.75;4993144;28;20749;-65
2022/01/29 07:46:45;;;;;;;18.27;12.43;;;;;;;-0.27;69.34;100657.97;5029357;28;20620;-64
2022/01/29 07:49:12;;;;;;;19.57;12.70;;;;;;;-1.25;74.72;100705.53;5029719;28;20607;-64
2022/01/29 07:51:40;;;;;;;20.07;13.43;;;;;;;1.61;68.61;100702.75;5012398;28;20236;-65
2022/01/29 07:54:07;;;;;;;19.27;12.47;;;;;;;0.08;70.41;100684.97;5029633;28;20235;-65
2022/01/29 07:56:34;;;;;;;18.57;12.53;;;;;;;1.23;69.92;100712.84;5011171;28;20227;-65
2022/01/29 07:59:02;;;;;;;19.07;11.87;;;;;;;-0.34;74.28;100757.06;5030183;28;20223;-65
2022/01/29 08:01:30;;;;;;;10.47;8.03;;;;;;;0.36;72.82;100756.13;5011671;28;20223;-63
2022/01/29 08:03:57;;;;;;;16.43;11.67;;;;;;;-0.75;75.42;100749.44;5029442;28;20224;-65
2022/01/29 08:06:26;;;;;;;20.03;13.27;;;;;;;0.79;70.22;100688.13;5029079;28;20220;-64
2022/01/29 08:08:53;;;;;;;14.57;9.73;;;;;;;-0.69;72.05;100678.41;5027913;28;20608;-64
2022/01/29 08:11:20;;;;;;;18.33;13.03;;;;;;;0.12;71.35;100690.91;5009889;28;20243;-64
2022/01/29 08:13:47;;;;;;;15.60;7.97;;;;;;;-1.13;74.27;100718.06;5023366;28;20242;-64
2022/01/29 08:16:14;;;;;;;18.03;12.77;;;;;;;0.74;71.78;100737.44;5029552;28;20227;-65
2022/01/29 08:18:43;;;;;;;18.07;13.33;;;;;;;1.10;70.00;100699.56;5027893;28;20669;-65
2022/01/29 08:21:14;;;;;;;18.47;12.03;;;;;;;1.53;68.97;100705.00;5012396;28;20235;-64
2022/01/29 08:23:42;;;;;;;15.40;10.23;;;;;;;1.31;68.79;100685.16;5027479;28;20237;-63
2022/01/29 08:26:10;;;;;;;16.30;10.70;;;;;;;-0.60;73.08;100703.31;5029550;28;20222;-64
2022/01/29 08:28:37;;;;;;;19.17;13.20;;;;;;;1.12;70.15;100710.84;5028472;28;20609;-64
2022/01/29 08:31:05;;;;;;;18.47;11.73;;;;;;;0.23;72.13;100724.44;5028183;28;20229;-65
2022/01/29 08:33:32;;;;;;;17.00;11.90;;;;;;;0.85;70.63;100707.97;5028742;28;20611;-64
2022/01/29 08:36:00;;;;;;;17.83;12.10;;;;;;;0.06;71.77;100706.94;5028527;28;20222;-64
2022/01/29 08:38:27;;;;;;;18.50;12.30;;;;;;;-0.46;74.26;100731.44;5028769;28;20228;-64
2022/01/29 08:40:55;;;;;;;16.87;11.67;;;;;;;0.91;70.42;100703.22;5002387;28;20273;-64
2022/01/29 08:43:22;;;;;;;19.73;13.67;;;;;;;0.79;71.32;100714.41;5028194;28;20228;-64
2022/01/29 08:45:50;;;;;;;19.43;13.73;;;;;;;0.54;72.18;100723.66;5012000;28;20224;-64
2022/01/29 08:48:18;;;;;;;17.73;11.20;;;;;;;-1.01;76.80;100745.47;5028289;28;20232;-64
2022/01/29 08:50:45;;;;;;;19.37;12.23;;;;;;;-0.91;74.01;100689.09;5028870;28;20247;-65
2022/01/29 08:53:15;;;;;;;19.07;13.57;;;;;;;0.45;71.61;100683.00;5027919;28;20667;-64
2022/01/29 08:55:43;;;;;;;20.20;13.13;;;;;;;0.15;73.15;100726.59;5010994;28;20226;-65
2022/01/29 08:58:10;;;;;;;19.30;13.97;;;;;;;-0.08;75.05;100744.41;5028719;28;20264;-64
2022/01/29 09:00:39;;;;;;;26.53;16.03;;;;;;;0.04;72.21;100685.19;5028327;28;20231;-64
2022/01/29 09:03:07;;;;;;;24.77;16.00;;;;;;;0.83;71.73;100692.31;5028287;28;20228;-64
2022/01/29 09:05:35;;;;;;;19.20;11.37;;;;;;;-0.57;74.34;100670.88;5027819;28;20688;-64
2022/01/29 09:08:04;;;;;;;13.57;9.53;;;;;;;0.78;71.34;100670.69;5010759;28;20620;-64
2022/01/29 09:10:31;;;;;;;19.57;13.03;;;;;;;0.63;72.21;100675.03;5009831;28;20229;-65
2022/01/29 09:12:59;;;;;;;17.60;11.63;;;;;;;0.57;72.89;100707.72;5028343;28;20233;-64
2022/01/29 09:15:26;;;;;;;20.70;14.07;;;;;;;0.23;72.95;100688.56;5007694;28;20229;-63
2022/01/29 09:17:53;;;;;;;22.20;14.33;;;;;;;0.43;73.22;100690.06;5006949;28;20228;-65
2022/01/29 09:20:20;;;;;;;18.40;12.63;;;;;;;-0.15;73.22;100666.97;5028330;28;20517;-65
2022/01/29 09:22:47;;;;;;;17.87;12.93;;;;;;;1.23;71.47;100678.66;5026922;28;20242;-65
2022/01/29 09:25:14;;;;;;;17.67;11.87;;;;;;;0.92;72.90;100693.56;5028609;28;20719;-64
2022/01/29 09:27:41;;;;;;;17.90;12.20;;;;;;;0.24;74.28;100687.59;5028083;28;20232;-64
2022/01/29 09:30:09;;;;;;;20.67;14.17;;;;;;;0.24;75.17;100708.59;5027186;28;20225;-65
2022/01/29 09:32:36;;;;;;;14.97;10.23;;;;;;;0.38;76.05;100715.72;5027041;28;20246;-65
2022/01/29 09:35:03;;;;;;;18.77;13.30;;;;;;;-0.30;75.06;100679.09;5009601;28;20230;-65
2022/01/29 09:37:30;;;;;;;24.33;14.80;;;;;;;-0.40;76.72;100706.72;5028453;28;20226;-64
2022/01/29 09:39:57;;;;;;;13.63;10.00;;;;;;;-1.20;77.09;100674.75;5026595;28;20232;-64
2022/01/29 09:42:24;;;;;;;18.40;12.20;;;;;;;0.16;76.75;100717.81;5000694;28;20729;-63
2022/01/29 09:44:52;;;;;;;20.37;13.37;;;;;;;-0.19;75.17;100681.16;5023967;28;20692;-63
2022/01/29 09:47:23;;;;;;;15.20;10.13;;;;;;;-0.93;79.03;100717.16;5027406;28;20217;-63
2022/01/29 09:49:51;;;;;;;20.43;14.83;;;;;;;0.46;74.49;100689.06;5019220;28;20228;-64
2022/01/29 09:52:18;;;;;;;17.03;10.60;;;;;;;0.04;75.15;100685.19;5020276;28;20223;-64
2022/01/29 09:54:48;;;;;;;19.67;12.87;;;;;;;0.61;73.20;100655.88;5020819;28;20224;-64
2022/01/29 09:57:16;;;;;;;17.70;12.70;;;;;;;-0.66;77.43;100693.13;5021720;28;20214;-64
2022/01/29 09:59:43;;;;;;;19.17;12.70;;;;;;;-0.31;79.11;100735.94;5024166;28;20227;-64
2022/01/29 10:02:14;;;;;;;20.77;12.37;;;;;;;-0.42;79.58;100735.63;5008350;28;20269;-63
2022/01/29 10:04:55;;;;;;;15.90;10.67;;;;;;;-0.66;81.16;100745.53;5006709;28;20242;-68
2022/01/29 10:07:25;;;;;;;19.57;12.17;;;;;;;-0.87;81.26;100737.78;5023387;28;20809;-63
2022/01/29 10:09:53;;;;;;;21.17;14.23;;;;;;;0.32;76.04;100668.84;5024081;28;20231;-63
2022/01/29 10:12:28;;;;;;;20.70;13.70;;;;;;;1.06;73.61;100642.84;5020862;28;20222;-64
2022/01/29 10:14:58;;;;;;;15.97;11.27;;;;;;;-0.60;77.40;100690.19;5017697;28;21243;-65
2022/01/29 10:17:43;;;;;;;20.90;11.70;;;;;;;-1.07;78.84;100686.31;5019995;28;20224;-64
2022/01/29 10:20:13;;;;;;;19.07;11.77;;;;;;;-0.01;78.32;100709.03;5001171;28;20223;-65
2022/01/29 10:22:41;;;;;;;22.87;14.23;;;;;;;0.74;74.76;100656.91;5002728;28;20351;-65
2022/01/29 10:25:14;;;;;;;16.63;12.63;;;;;;;-0.65;76.93;100652.06;5019725;28;20223;-65
2022/01/29 10:28:08;;;;;;;18.87;13.70;;;;;;;-0.25;75.58;100626.41;5017454;28;20222;-65
2022/01/29 10:30:48;;;;;;;13.50;9.53;;;;;;;-0.17;76.94;100676.66;5019698;28;20640;-64
2022/01/29 10:33:26;;;;;;;16.13;10.43;;;;;;;0.78;75.20;100647.06;5019926;28;20232;-64
2022/01/29 10:36:18;;;;;;;14.53;9.77;;;;;;;0.79;74.61;100623.34;5020047;28;20229;-65
2022/01/29 10:38:53;;;;;;;15.37;10.23;;;;;;;0.28;75.88;100650.72;4982781;28;21548;-64
2022/01/29 10:41:23;;;;;;;17.37;10.80;;;;;;;0.87;74.32;100629.94;5021296;28;20240;-65
2022/01/29 10:44:14;;;;;;;14.83;10.93;;;;;;;0.92;73.65;100618.22;5022259;28;20236;-65
2022/01/29 10:46:52;;;;;;;15.70;10.60;;;;;;;0.55;75.50;100659.69;5019920;28;20225;-65
2022/01/29 10:49:30;;;;;;;15.70;8.97;;;;;;;-0.27;77.87;100670.22;5018381;28;20222;-64
2022/01/29 10:52:08;;;;;;;14.33;8.73;;;;;;;-0.51;79.81;100691.50;5020130;28;20243;-64
2022/01/29 10:54:38;;;;;;;11.37;7.80;;;;;;;0.70;75.87;100644.03;5017606;28;20968;-64
2022/01/29 10:57:10;;;;;;;14.60;9.47;;;;;;;0.24;77.68;100674.47;5018127;28;20235;-65
2022/01/29 10:59:47;;;;;;;14.67;9.60;;;;;;;1.34;73.36;100618.44;5022492;28;20710;-65
2022/01/29 11:04:18;;;;;;;16.30;9.23;;;;;;;-0.72;81.42;100668.06;4786964;27;8294645;-66
2022/01/29 11:06:53;;;;;;;13.17;9.00;;;;;;;-0.12;78.04;100604.72;5071458;28;20216;-68
2022/01/29 11:09:21;;;;;;;13.23;10.00;;;;;;;0.26;76.60;100588.63;5072245;28;20581;-68
2022/01/29 11:11:57;;;;;;;12.77;8.63;;;;;;;0.61;76.71;100603.38;5072391;28;20206;-68
2022/01/29 11:14:26;;;;;;;11.80;7.67;;;;;;;0.82;75.34;100585.53;5070826;28;20222;-68
2022/01/29 11:16:53;;;;;;;15.10;10.47;;;;;;;0.34;76.84;100614.47;5071596;28;20208;-68
2022/01/29 11:19:27;;;;;;;10.00;8.23;;;;;;;1.09;74.64;100593.59;5069216;28;20201;-68
2022/01/29 11:21:57;;;;;;;11.23;6.00;;;;;;;-1.12;78.72;100596.66;5073611;28;20192;-67
2022/01/29 11:24:35;;;;;;;10.83;7.77;;;;;;;-0.46;79.89;100642.31;5071302;28;20223;-68
2022/01/29 11:27:17;;;;;;;10.73;7.83;;;;;;;0.40;76.84;100594.91;5072042;28;20205;-68
2022/01/29 11:30:09;;;;;;;10.60;7.00;;;;;;;0.79;75.74;100597.06;5068988;28;20198;-68
2022/01/29 11:33:00;;;;;;;10.17;6.90;;;;;;;0.74;75.11;100583.38;5072235;28;20224;-69
2022/01/29 11:35:48;;;;;;;14.07;9.77;;;;;;;1.15;72.89;100560.88;5070708;28;20198;-69
2022/01/29 11:38:30;;;;;;;10.00;7.33;;;;;;;1.38;72.70;100560.34;5071366;28;20204;-69
2022/01/29 11:41:04;;;;;;;10.13;6.90;;;;;;;0.02;77.26;100611.81;5067743;28;20206;-68
2022/01/29 11:43:36;;;;;;;10.93;7.33;;;;;;;0.05;76.08;100582.81;5073889;28;20722;-68